sensor_id;sensor_type;location;lat;lon;timestamp;temperature;humidity
11894;DHT22;6006;49.696;8.662;2022-11-10T00:00:38;7.40;99.90
11894;DHT22;6006;49.696;8.662;2022-11-10T00:03:06;7.30;99.90
11894;DHT22;6006;49.696;8.662;2022-11-10T00:05:35;7.30;99.90
11894;DHT22;6006;49.696;8.662;2022-11-10T00:08:04;7.30;99.90
11894;DHT22;6006;49.696;8.662;2022-11-10T00:10:31;7.20;99.90
11894;DHT22;6006;49.696;8.662;2022-11-10T00:13:20;7.20;99.90
11894;DHT22;6006;49.696;8.662;2022-11-10T00:15:47;7.10;99.90
11894;DHT22;6006;49.696;8.662;2022-11-10T00:18:31;7.10;99.90
11894;DHT22;6006;49.696;8.662;2022-11-10T00:21:02;7.00;99.90
11894;DHT22;6006;49.696;8.662;2022-11-10T00:23:29;7.00;99.90
11894;DHT22;6006;49.696;8.662;2022-11-10T00:25:57;7.00;99.90
11894;DHT22;6006;49.696;8.662;2022-11-10T00:28:28;7.00;99.90
11894;DHT22;6006;49.696;8.662;2022-11-10T00:30:55;6.90;99.90
11894;DHT22;6006;49.696;8.662;2022-11-10T00:33:22;6.90;99.90
11894;DHT22;6006;49.696;8.662;2022-11-10T00:35:49;6.80;99.90
11894;DHT22;6006;49.696;8.662;2022-11-10T00:38:16;6.90;99.90
11894;DHT22;6006;49.696;8.662;2022-11-10T00:40:42;6.80;99.90
11894;DHT22;6006;49.696;8.662;2022-11-10T00:43:09;6.80;99.90
11894;DHT22;6006;49.696;8.662;2022-11-10T00:45:40;6.80;99.90
11894;DHT22;6006;49.696;8.662;2022-11-10T00:48:07;6.70;99.90
11894;DHT22;6006;49.696;8.662;2022-11-10T00:50:34;6.70;99.90
11894;DHT22;6006;49.696;8.662;2022-11-10T00:53:01;6.70;99.90
11894;DHT22;6006;49.696;8.662;2022-11-10T00:55:28;6.60;99.90
11894;DHT22;6006;49.696;8.662;2022-11-10T00:57:55;6.60;99.90
11894;DHT22;6006;49.696;8.662;2022-11-10T01:00:22;6.60;99.90
11894;DHT22;6006;49.696;8.662;2022-11-10T01:02:51;6.50;99.90
11894;DHT22;6006;49.696;8.662;2022-11-10T01:05:18;6.50;99.90
11894;DHT22;6006;49.696;8.662;2022-11-10T01:07:44;6.50;99.90
11894;DHT22;6006;49.696;8.662;2022-11-10T01:10:12;6.50;99.90
11894;DHT22;6006;49.696;8.662;2022-11-10T01:12:38;6.50;99.90
11894;DHT22;6006;49.696;8.662;2022-11-10T01:15:08;6.50;99.90
11894;DHT22;6006;49.696;8.662;2022-11-10T01:17:35;6.50;99.90
11894;DHT22;6006;49.696;8.662;2022-11-10T01:20:05;6.40;99.90
11894;DHT22;6006;49.696;8.662;2022-11-10T01:22:33;6.40;99.90
11894;DHT22;6006;49.696;8.662;2022-11-10T01:25:00;6.40;99.90
11894;DHT22;6006;49.696;8.662;2022-11-10T01:27:26;6.40;99.90
11894;DHT22;6006;49.696;8.662;2022-11-10T01:29:53;6.40;99.90
11894;DHT22;6006;49.696;8.662;2022-11-10T01:32:20;6.40;99.90
11894;DHT22;6006;49.696;8.662;2022-11-10T01:34:47;6.40;99.90
11894;DHT22;6006;49.696;8.662;2022-11-10T01:37:15;6.30;99.90
11894;DHT22;6006;49.696;8.662;2022-11-10T01:39:42;6.30;99.90
11894;DHT22;6006;49.696;8.662;2022-11-10T01:42:09;6.20;99.90
11894;DHT22;6006;49.696;8.662;2022-11-10T01:44:39;6.20;99.90
11894;DHT22;6006;49.696;8.662;2022-11-10T01:47:07;6.20;99.90
11894;DHT22;6006;49.696;8.662;2022-11-10T01:49:34;6.20;99.90
11894;DHT22;6006;49.696;8.662;2022-11-10T01:52:05;6.20;99.90
11894;DHT22;6006;49.696;8.662;2022-11-10T01:54:37;6.30;99.90
11894;DHT22;6006;49.696;8.662;2022-11-10T01:57:07;6.30;99.90
11894;DHT22;6006;49.696;8.662;2022-11-10T01:59:38;6.40;99.90
11894;DHT22;6006;49.696;8.662;2022-11-10T02:02:08;6.20;99.90
11894;DHT22;6006;49.696;8.662;2022-11-10T02:04:38;6.30;99.90
11894;DHT22;6006;49.696;8.662;2022-11-10T02:07:06;6.20;99.90
11894;DHT22;6006;49.696;8.662;2022-11-10T02:09:36;6.20;99.90
11894;DHT22;6006;49.696;8.662;2022-11-10T02:12:03;6.20;99.90
11894;DHT22;6006;49.696;8.662;2022-11-10T02:14:31;6.10;99.90
11894;DHT22;6006;49.696;8.662;2022-11-10T02:16:58;6.00;99.90
11894;DHT22;6006;49.696;8.662;2022-11-10T02:19:25;6.00;99.90
11894;DHT22;6006;49.696;8.662;2022-11-10T02:21:54;6.00;99.90
11894;DHT22;6006;49.696;8.662;2022-11-10T02:24:21;6.00;99.90
11894;DHT22;6006;49.696;8.662;2022-11-10T02:26:51;6.00;99.90
11894;DHT22;6006;49.696;8.662;2022-11-10T02:29:19;6.00;99.90
11894;DHT22;6006;49.696;8.662;2022-11-10T02:31:46;6.00;99.90
11894;DHT22;6006;49.696;8.662;2022-11-10T02:34:13;6.10;99.90
11894;DHT22;6006;49.696;8.662;2022-11-10T02:36:40;6.10;99.90
11894;DHT22;6006;49.696;8.662;2022-11-10T02:39:08;6.10;99.90
11894;DHT22;6006;49.696;8.662;2022-11-10T02:41:35;6.10;99.90
11894;DHT22;6006;49.696;8.662;2022-11-10T02:44:02;6.20;99.90
11894;DHT22;6006;49.696;8.662;2022-11-10T02:46:29;6.30;99.90
11894;DHT22;6006;49.696;8.662;2022-11-10T02:48:56;6.40;99.90
11894;DHT22;6006;49.696;8.662;2022-11-10T02:51:23;6.50;99.90
11894;DHT22;6006;49.696;8.662;2022-11-10T02:53:50;6.50;99.90
11894;DHT22;6006;49.696;8.662;2022-11-10T02:56:18;6.50;99.90
11894;DHT22;6006;49.696;8.662;2022-11-10T02:58:45;6.50;99.90
11894;DHT22;6006;49.696;8.662;2022-11-10T03:01:12;6.50;99.90
11894;DHT22;6006;49.696;8.662;2022-11-10T03:03:39;6.40;99.90
11894;DHT22;6006;49.696;8.662;2022-11-10T03:06:06;6.40;99.90
11894;DHT22;6006;49.696;8.662;2022-11-10T03:08:33;6.30;99.90
11894;DHT22;6006;49.696;8.662;2022-11-10T03:11:00;6.20;99.90
11894;DHT22;6006;49.696;8.662;2022-11-10T03:13:28;6.10;99.90
11894;DHT22;6006;49.696;8.662;2022-11-10T03:15:56;6.10;99.90
11894;DHT22;6006;49.696;8.662;2022-11-10T03:18:22;6.10;99.90
11894;DHT22;6006;49.696;8.662;2022-11-10T03:20:50;6.00;99.90
11894;DHT22;6006;49.696;8.662;2022-11-10T03:23:17;6.00;99.90
11894;DHT22;6006;49.696;8.662;2022-11-10T03:25:44;5.90;99.90
11894;DHT22;6006;49.696;8.662;2022-11-10T03:28:12;5.70;99.90
11894;DHT22;6006;49.696;8.662;2022-11-10T03:30:40;5.70;99.90
11894;DHT22;6006;49.696;8.662;2022-11-10T03:33:07;5.70;99.90
11894;DHT22;6006;49.696;8.662;2022-11-10T03:35:35;5.60;99.90
11894;DHT22;6006;49.696;8.662;2022-11-10T03:38:02;5.60;99.90
11894;DHT22;6006;49.696;8.662;2022-11-10T03:40:29;5.60;99.90
11894;DHT22;6006;49.696;8.662;2022-11-10T03:42:56;5.50;99.90
11894;DHT22;6006;49.696;8.662;2022-11-10T03:45:23;5.50;99.90
11894;DHT22;6006;49.696;8.662;2022-11-10T03:47:51;5.50;99.90
11894;DHT22;6006;49.696;8.662;2022-11-10T03:50:18;5.60;99.90
11894;DHT22;6006;49.696;8.662;2022-11-10T03:52:45;5.60;99.90
11894;DHT22;6006;49.696;8.662;2022-11-10T03:55:14;5.50;99.90
11894;DHT22;6006;49.696;8.662;2022-11-10T03:57:41;5.60;99.90
11894;DHT22;6006;49.696;8.662;2022-11-10T04:00:10;5.50;99.90
11894;DHT22;6006;49.696;8.662;2022-11-10T04:02:38;5.50;99.90
11894;DHT22;6006;49.696;8.662;2022-11-10T04:05:07;5.50;99.90
11894;DHT22;6006;49.696;8.662;2022-11-10T04:07:56;5.40;99.90
11894;DHT22;6006;49.696;8.662;2022-11-10T04:10:41;5.30;99.90
11894;DHT22;6006;49.696;8.662;2022-11-10T04:13:08;5.30;99.90
11894;DHT22;6006;49.696;8.662;2022-11-10T04:15:53;5.20;99.90
11894;DHT22;6006;49.696;8.662;2022-11-10T04:18:20;5.20;99.90
11894;DHT22;6006;49.696;8.662;2022-11-10T04:20:52;5.20;99.90
11894;DHT22;6006;49.696;8.662;2022-11-10T04:23:20;5.20;99.90
11894;DHT22;6006;49.696;8.662;2022-11-10T04:26:04;5.20;99.90
11894;DHT22;6006;49.696;8.662;2022-11-10T04:28:50;5.10;99.90
11894;DHT22;6006;49.696;8.662;2022-11-10T04:31:19;5.10;99.90
11894;DHT22;6006;49.696;8.662;2022-11-10T04:33:47;5.10;99.90
11894;DHT22;6006;49.696;8.662;2022-11-10T04:36:17;5.00;99.90
11894;DHT22;6006;49.696;8.662;2022-11-10T04:38:45;5.00;99.90
11894;DHT22;6006;49.696;8.662;2022-11-10T04:41:12;4.90;99.90
11894;DHT22;6006;49.696;8.662;2022-11-10T04:43:40;4.80;99.90
11894;DHT22;6006;49.696;8.662;2022-11-10T04:46:12;4.60;99.90
11894;DHT22;6006;49.696;8.662;2022-11-10T04:48:43;4.90;99.90
11894;DHT22;6006;49.696;8.662;2022-11-10T04:51:11;4.80;99.90
11894;DHT22;6006;49.696;8.662;2022-11-10T04:53:39;4.80;99.90
11894;DHT22;6006;49.696;8.662;2022-11-10T04:56:06;4.80;99.90
11894;DHT22;6006;49.696;8.662;2022-11-10T04:58:33;4.70;99.90
11894;DHT22;6006;49.696;8.662;2022-11-10T05:01:00;4.70;99.90
11894;DHT22;6006;49.696;8.662;2022-11-10T05:03:27;4.70;99.90
11894;DHT22;6006;49.696;8.662;2022-11-10T05:05:54;4.70;99.90
11894;DHT22;6006;49.696;8.662;2022-11-10T05:08:21;4.70;99.90
11894;DHT22;6006;49.696;8.662;2022-11-10T05:10:49;4.70;99.90
11894;DHT22;6006;49.696;8.662;2022-11-10T05:13:16;4.80;99.90
11894;DHT22;6006;49.696;8.662;2022-11-10T05:15:43;4.70;99.90
11894;DHT22;6006;49.696;8.662;2022-11-10T05:18:11;4.70;99.90
11894;DHT22;6006;49.696;8.662;2022-11-10T05:20:39;4.80;99.90
11894;DHT22;6006;49.696;8.662;2022-11-10T05:23:05;4.80;99.90
11894;DHT22;6006;49.696;8.662;2022-11-10T05:25:51;4.80;99.90
11894;DHT22;6006;49.696;8.662;2022-11-10T05:28:18;4.80;99.90
11894;DHT22;6006;49.696;8.662;2022-11-10T05:30:45;4.80;99.90
11894;DHT22;6006;49.696;8.662;2022-11-10T05:33:12;4.90;99.90
11894;DHT22;6006;49.696;8.662;2022-11-10T05:35:39;4.90;99.90
11894;DHT22;6006;49.696;8.662;2022-11-10T05:38:06;4.80;99.90
11894;DHT22;6006;49.696;8.662;2022-11-10T05:40:34;4.90;99.90
11894;DHT22;6006;49.696;8.662;2022-11-10T05:43:02;4.80;99.90
11894;DHT22;6006;49.696;8.662;2022-11-10T05:45:29;4.80;99.90
11894;DHT22;6006;49.696;8.662;2022-11-10T05:47:56;4.70;99.90
11894;DHT22;6006;49.696;8.662;2022-11-10T05:50:24;4.70;99.90
11894;DHT22;6006;49.696;8.662;2022-11-10T05:52:52;4.70;99.90
11894;DHT22;6006;49.696;8.662;2022-11-10T05:55:21;4.70;99.90
11894;DHT22;6006;49.696;8.662;2022-11-10T05:57:49;4.70;99.90
11894;DHT22;6006;49.696;8.662;2022-11-10T06:00:20;4.80;99.90
11894;DHT22;6006;49.696;8.662;2022-11-10T06:02:56;4.80;99.90
11894;DHT22;6006;49.696;8.662;2022-11-10T06:05:23;4.80;99.90
11894;DHT22;6006;49.696;8.662;2022-11-10T06:07:50;4.80;99.90
11894;DHT22;6006;49.696;8.662;2022-11-10T06:10:17;4.90;99.90
11894;DHT22;6006;49.696;8.662;2022-11-10T06:12:44;4.80;99.90
11894;DHT22;6006;49.696;8.662;2022-11-10T06:15:11;4.80;99.90
11894;DHT22;6006;49.696;8.662;2022-11-10T06:17:39;4.80;99.90
11894;DHT22;6006;49.696;8.662;2022-11-10T06:20:07;4.80;99.90
11894;DHT22;6006;49.696;8.662;2022-11-10T06:22:34;4.90;99.90
11894;DHT22;6006;49.696;8.662;2022-11-10T06:25:01;5.00;99.90
11894;DHT22;6006;49.696;8.662;2022-11-10T06:27:28;5.00;99.90
11894;DHT22;6006;49.696;8.662;2022-11-10T06:29:55;5.00;99.90
11894;DHT22;6006;49.696;8.662;2022-11-10T06:32:22;5.10;99.90
11894;DHT22;6006;49.696;8.662;2022-11-10T06:34:50;5.10;99.90
11894;DHT22;6006;49.696;8.662;2022-11-10T06:37:17;5.20;99.90
11894;DHT22;6006;49.696;8.662;2022-11-10T06:39:44;5.20;99.90
11894;DHT22;6006;49.696;8.662;2022-11-10T06:42:11;5.30;99.90
11894;DHT22;6006;49.696;8.662;2022-11-10T06:44:37;5.30;99.90
11894;DHT22;6006;49.696;8.662;2022-11-10T06:47:04;5.30;99.90
11894;DHT22;6006;49.696;8.662;2022-11-10T06:49:31;5.30;99.90
11894;DHT22;6006;49.696;8.662;2022-11-10T06:52:00;5.30;99.90
11894;DHT22;6006;49.696;8.662;2022-11-10T06:54:27;5.40;99.90
11894;DHT22;6006;49.696;8.662;2022-11-10T06:56:54;5.40;99.90
11894;DHT22;6006;49.696;8.662;2022-11-10T06:59:20;5.40;99.90
11894;DHT22;6006;49.696;8.662;2022-11-10T07:01:47;6.00;99.90
11894;DHT22;6006;49.696;8.662;2022-11-10T07:04:15;6.10;99.90
11894;DHT22;6006;49.696;8.662;2022-11-10T07:06:41;5.80;99.90
11894;DHT22;6006;49.696;8.662;2022-11-10T07:09:10;5.70;99.90
11894;DHT22;6006;49.696;8.662;2022-11-10T07:11:37;5.60;99.90
11894;DHT22;6006;49.696;8.662;2022-11-10T07:14:03;5.60;99.90
11894;DHT22;6006;49.696;8.662;2022-11-10T07:16:30;5.60;99.90
11894;DHT22;6006;49.696;8.662;2022-11-10T07:18:57;5.50;99.90
11894;DHT22;6006;49.696;8.662;2022-11-10T07:21:24;5.50;99.90
11894;DHT22;6006;49.696;8.662;2022-11-10T07:23:51;5.60;99.90
11894;DHT22;6006;49.696;8.662;2022-11-10T07:26:20;5.50;99.90
11894;DHT22;6006;49.696;8.662;2022-11-10T07:28:46;5.50;99.90
11894;DHT22;6006;49.696;8.662;2022-11-10T07:31:13;5.60;99.90
11894;DHT22;6006;49.696;8.662;2022-11-10T07:33:40;5.60;99.90
11894;DHT22;6006;49.696;8.662;2022-11-10T07:36:08;5.60;99.90
11894;DHT22;6006;49.696;8.662;2022-11-10T07:38:35;5.70;99.90
11894;DHT22;6006;49.696;8.662;2022-11-10T07:41:02;5.70;99.90
11894;DHT22;6006;49.696;8.662;2022-11-10T07:43:30;5.70;99.90
11894;DHT22;6006;49.696;8.662;2022-11-10T07:45:57;5.80;99.90
11894;DHT22;6006;49.696;8.662;2022-11-10T07:48:25;5.80;99.90
11894;DHT22;6006;49.696;8.662;2022-11-10T07:50:52;5.80;99.90
11894;DHT22;6006;49.696;8.662;2022-11-10T07:53:19;5.90;99.90
11894;DHT22;6006;49.696;8.662;2022-11-10T07:55:46;5.90;99.90
11894;DHT22;6006;49.696;8.662;2022-11-10T07:58:15;6.00;99.90
11894;DHT22;6006;49.696;8.662;2022-11-10T08:00:44;6.00;99.90
11894;DHT22;6006;49.696;8.662;2022-11-10T08:03:13;6.10;99.90
11894;DHT22;6006;49.696;8.662;2022-11-10T08:05:41;6.20;99.90
11894;DHT22;6006;49.696;8.662;2022-11-10T08:08:08;6.20;99.90
11894;DHT22;6006;49.696;8.662;2022-11-10T08:10:36;6.30;99.90
11894;DHT22;6006;49.696;8.662;2022-11-10T08:13:04;6.40;99.90
11894;DHT22;6006;49.696;8.662;2022-11-10T08:15:32;6.50;99.90
11894;DHT22;6006;49.696;8.662;2022-11-10T08:18:04;6.60;99.90
11894;DHT22;6006;49.696;8.662;2022-11-10T08:20:31;6.80;99.90
11894;DHT22;6006;49.696;8.662;2022-11-10T08:22:59;6.90;99.90
11894;DHT22;6006;49.696;8.662;2022-11-10T08:25:27;7.00;99.90
11894;DHT22;6006;49.696;8.662;2022-11-10T08:27:58;7.20;99.90
11894;DHT22;6006;49.696;8.662;2022-11-10T08:30:26;7.40;99.90
11894;DHT22;6006;49.696;8.662;2022-11-10T08:32:54;7.50;99.90
11894;DHT22;6006;49.696;8.662;2022-11-10T08:35:24;7.60;99.90
11894;DHT22;6006;49.696;8.662;2022-11-10T08:37:52;7.70;99.90
11894;DHT22;6006;49.696;8.662;2022-11-10T08:40:19;7.90;99.90
11894;DHT22;6006;49.696;8.662;2022-11-10T08:42:50;8.20;99.90
11894;DHT22;6006;49.696;8.662;2022-11-10T08:45:23;8.20;99.90
11894;DHT22;6006;49.696;8.662;2022-11-10T08:47:56;8.40;99.90
11894;DHT22;6006;49.696;8.662;2022-11-10T08:50:24;8.50;99.90
11894;DHT22;6006;49.696;8.662;2022-11-10T08:52:51;8.60;99.90
11894;DHT22;6006;49.696;8.662;2022-11-10T08:55:18;8.70;99.90
11894;DHT22;6006;49.696;8.662;2022-11-10T08:57:46;9.00;99.90
11894;DHT22;6006;49.696;8.662;2022-11-10T09:00:15;9.20;99.90
11894;DHT22;6006;49.696;8.662;2022-11-10T09:02:42;9.30;99.90
11894;DHT22;6006;49.696;8.662;2022-11-10T09:05:09;9.40;99.90
11894;DHT22;6006;49.696;8.662;2022-11-10T09:07:43;9.50;99.90
11894;DHT22;6006;49.696;8.662;2022-11-10T09:10:11;9.60;99.90
11894;DHT22;6006;49.696;8.662;2022-11-10T09:12:38;9.70;99.90
11894;DHT22;6006;49.696;8.662;2022-11-10T09:15:07;9.80;99.90
11894;DHT22;6006;49.696;8.662;2022-11-10T09:17:34;9.90;99.90
11894;DHT22;6006;49.696;8.662;2022-11-10T09:20:01;10.00;99.90
11894;DHT22;6006;49.696;8.662;2022-11-10T09:22:28;10.10;99.90
11894;DHT22;6006;49.696;8.662;2022-11-10T09:24:57;10.20;99.90
11894;DHT22;6006;49.696;8.662;2022-11-10T09:27:24;10.30;99.90
11894;DHT22;6006;49.696;8.662;2022-11-10T09:29:50;10.40;99.90
11894;DHT22;6006;49.696;8.662;2022-11-10T09:32:17;10.50;99.90
11894;DHT22;6006;49.696;8.662;2022-11-10T09:34:44;10.50;99.90
11894;DHT22;6006;49.696;8.662;2022-11-10T09:37:11;10.60;99.90
11894;DHT22;6006;49.696;8.662;2022-11-10T09:39:38;10.60;99.90
11894;DHT22;6006;49.696;8.662;2022-11-10T09:42:22;10.60;99.90
11894;DHT22;6006;49.696;8.662;2022-11-10T09:44:53;10.70;99.90
11894;DHT22;6006;49.696;8.662;2022-11-10T09:47:30;10.80;99.90
11894;DHT22;6006;49.696;8.662;2022-11-10T09:50:00;10.90;99.90
11894;DHT22;6006;49.696;8.662;2022-11-10T09:52:30;11.00;99.90
11894;DHT22;6006;49.696;8.662;2022-11-10T09:55:02;11.00;99.90
11894;DHT22;6006;49.696;8.662;2022-11-10T09:57:31;11.10;99.90
11894;DHT22;6006;49.696;8.662;2022-11-10T09:59:58;11.20;99.90
11894;DHT22;6006;49.696;8.662;2022-11-10T10:02:28;11.30;99.90
11894;DHT22;6006;49.696;8.662;2022-11-10T10:05:24;11.40;99.90
11894;DHT22;6006;49.696;8.662;2022-11-10T10:08:00;11.40;99.90
11894;DHT22;6006;49.696;8.662;2022-11-10T10:10:33;11.50;99.90
11894;DHT22;6006;49.696;8.662;2022-11-10T10:13:22;11.50;99.90
11894;DHT22;6006;49.696;8.662;2022-11-10T10:16:01;11.60;99.90
11894;DHT22;6006;49.696;8.662;2022-11-10T10:18:34;11.70;99.90
11894;DHT22;6006;49.696;8.662;2022-11-10T10:21:19;11.80;99.90
11894;DHT22;6006;49.696;8.662;2022-11-10T10:23:49;11.90;99.90
11894;DHT22;6006;49.696;8.662;2022-11-10T10:26:20;12.10;99.90
11894;DHT22;6006;49.696;8.662;2022-11-10T10:28:50;12.20;99.90
11894;DHT22;6006;49.696;8.662;2022-11-10T10:31:19;12.30;99.90
11894;DHT22;6006;49.696;8.662;2022-11-10T10:33:47;12.30;99.90
11894;DHT22;6006;49.696;8.662;2022-11-10T10:36:17;12.30;99.90
11894;DHT22;6006;49.696;8.662;2022-11-10T10:38:48;12.40;99.90
11894;DHT22;6006;49.696;8.662;2022-11-10T10:41:21;12.40;99.90
11894;DHT22;6006;49.696;8.662;2022-11-10T10:43:51;12.40;99.90
11894;DHT22;6006;49.696;8.662;2022-11-10T10:46:19;12.40;99.90
11894;DHT22;6006;49.696;8.662;2022-11-10T10:49:07;12.40;99.90
11894;DHT22;6006;49.696;8.662;2022-11-10T10:51:34;12.30;99.90
11894;DHT22;6006;49.696;8.662;2022-11-10T10:54:01;12.40;99.90
11894;DHT22;6006;49.696;8.662;2022-11-10T10:56:31;12.20;99.90
11894;DHT22;6006;49.696;8.662;2022-11-10T10:59:01;12.20;99.90
11894;DHT22;6006;49.696;8.662;2022-11-10T11:01:29;12.20;99.90
11894;DHT22;6006;49.696;8.662;2022-11-10T11:03:58;12.10;99.90
11894;DHT22;6006;49.696;8.662;2022-11-10T11:06:26;12.20;99.90
11894;DHT22;6006;49.696;8.662;2022-11-10T11:08:58;12.30;99.90
11894;DHT22;6006;49.696;8.662;2022-11-10T11:11:27;12.60;99.90
11894;DHT22;6006;49.696;8.662;2022-11-10T11:14:19;12.80;99.90
11894;DHT22;6006;49.696;8.662;2022-11-10T11:16:48;13.10;99.90
11894;DHT22;6006;49.696;8.662;2022-11-10T11:19:16;13.20;99.90
11894;DHT22;6006;49.696;8.662;2022-11-10T11:22:01;13.20;91.70
11894;DHT22;6006;49.696;8.662;2022-11-10T11:24:36;13.30;99.90
11894;DHT22;6006;49.696;8.662;2022-11-10T11:27:12;13.20;44.90
11894;DHT22;6006;49.696;8.662;2022-11-10T11:29:53;13.10;99.90
11894;DHT22;6006;49.696;8.662;2022-11-10T11:35:30;13.60;39.30
11894;DHT22;6006;49.696;8.662;2022-11-10T11:38:08;13.60;17.10
11894;DHT22;6006;49.696;8.662;2022-11-10T11:40:45;14.00;33.40
11894;DHT22;6006;49.696;8.662;2022-11-10T11:43:38;14.10;1.00
11894;DHT22;6006;49.696;8.662;2022-11-10T11:46:13;14.60;1.00
11894;DHT22;6006;49.696;8.662;2022-11-10T11:48:49;15.40;1.00
11894;DHT22;6006;49.696;8.662;2022-11-10T11:51:22;14.90;1.00
11894;DHT22;6006;49.696;8.662;2022-11-10T11:54:11;14.90;1.00
11894;DHT22;6006;49.696;8.662;2022-11-10T11:56:43;15.30;1.00
11894;DHT22;6006;49.696;8.662;2022-11-10T11:59:27;15.10;1.00
11894;DHT22;6006;49.696;8.662;2022-11-10T12:05:09;14.60;1.00
11894;DHT22;6006;49.696;8.662;2022-11-10T12:07:47;14.40;1.00
11894;DHT22;6006;49.696;8.662;2022-11-10T12:10:26;13.90;1.00
11894;DHT22;6006;49.696;8.662;2022-11-10T12:15:53;13.40;1.00
11894;DHT22;6006;49.696;8.662;2022-11-10T12:18:30;13.40;1.00
11894;DHT22;6006;49.696;8.662;2022-11-10T12:21:08;13.50;1.00
11894;DHT22;6006;49.696;8.662;2022-11-10T12:23:49;13.80;7.60
11894;DHT22;6006;49.696;8.662;2022-11-10T12:26:29;14.50;1.00
11894;DHT22;6006;49.696;8.662;2022-11-10T12:29:03;14.50;1.00
11894;DHT22;6006;49.696;8.662;2022-11-10T12:31:37;14.50;1.00
11894;DHT22;6006;49.696;8.662;2022-11-10T12:34:09;14.70;99.90
11894;DHT22;6006;49.696;8.662;2022-11-10T12:36:40;14.90;99.90
11894;DHT22;6006;49.696;8.662;2022-11-10T12:39:16;14.90;1.00
11894;DHT22;6006;49.696;8.662;2022-11-10T12:41:46;15.50;99.90
11894;DHT22;6006;49.696;8.662;2022-11-10T12:44:19;15.80;99.90
11894;DHT22;6006;49.696;8.662;2022-11-10T12:46:54;15.80;1.00
11894;DHT22;6006;49.696;8.662;2022-11-10T12:49:27;15.20;1.00
11894;DHT22;6006;49.696;8.662;2022-11-10T12:52:00;15.20;1.00
11894;DHT22;6006;49.696;8.662;2022-11-10T12:54:29;14.80;99.90
11894;DHT22;6006;49.696;8.662;2022-11-10T12:57:00;14.60;1.00
11894;DHT22;6006;49.696;8.662;2022-11-10T12:59:31;14.70;1.00
11894;DHT22;6006;49.696;8.662;2022-11-10T13:02:02;14.80;99.90
11894;DHT22;6006;49.696;8.662;2022-11-10T13:04:32;14.60;99.90
11894;DHT22;6006;49.696;8.662;2022-11-10T13:07:00;14.90;1.00
11894;DHT22;6006;49.696;8.662;2022-11-10T13:09:29;15.70;1.00
11894;DHT22;6006;49.696;8.662;2022-11-10T13:12:12;15.70;1.00
11894;DHT22;6006;49.696;8.662;2022-11-10T13:14:40;15.90;99.90
11894;DHT22;6006;49.696;8.662;2022-11-10T13:17:09;15.40;1.00
11894;DHT22;6006;49.696;8.662;2022-11-10T13:19:53;15.40;1.00
11894;DHT22;6006;49.696;8.662;2022-11-10T13:22:35;15.50;99.90
11894;DHT22;6006;49.696;8.662;2022-11-10T13:28:09;15.30;1.00
11894;DHT22;6006;49.696;8.662;2022-11-10T13:30:39;15.40;99.90
11894;DHT22;6006;49.696;8.662;2022-11-10T13:33:32;15.40;1.00
11894;DHT22;6006;49.696;8.662;2022-11-10T13:36:02;15.10;1.00
11894;DHT22;6006;49.696;8.662;2022-11-10T13:38:37;14.80;99.90
11894;DHT22;6006;49.696;8.662;2022-11-10T13:41:21;14.60;99.90
11894;DHT22;6006;49.696;8.662;2022-11-10T13:43:51;14.30;27.20
11894;DHT22;6006;49.696;8.662;2022-11-10T13:46:19;14.30;99.90
11894;DHT22;6006;49.696;8.662;2022-11-10T13:49:12;14.30;99.90
11894;DHT22;6006;49.696;8.662;2022-11-10T13:51:52;14.30;99.90
11894;DHT22;6006;49.696;8.662;2022-11-10T13:54:43;14.40;7.00
11894;DHT22;6006;49.696;8.662;2022-11-10T13:57:23;14.40;66.20
11894;DHT22;6006;49.696;8.662;2022-11-10T13:59:53;14.40;1.00
11894;DHT22;6006;49.696;8.662;2022-11-10T14:06:03;14.50;1.00
11894;DHT22;6006;49.696;8.662;2022-11-10T14:08:45;14.50;1.00
11894;DHT22;6006;49.696;8.662;2022-11-10T14:11:28;14.50;99.90
11894;DHT22;6006;49.696;8.662;2022-11-10T14:14:01;14.50;99.90
11894;DHT22;6006;49.696;8.662;2022-11-10T14:16:31;14.70;11.70
11894;DHT22;6006;49.696;8.662;2022-11-10T14:19:03;14.60;1.00
11894;DHT22;6006;49.696;8.662;2022-11-10T14:21:37;14.50;1.00
11894;DHT22;6006;49.696;8.662;2022-11-10T14:24:15;14.60;99.90
11894;DHT22;6006;49.696;8.662;2022-11-10T14:26:48;14.40;99.90
11894;DHT22;6006;49.696;8.662;2022-11-10T14:29:31;14.30;99.90
11894;DHT22;6006;49.696;8.662;2022-11-10T14:32:01;14.10;99.90
11894;DHT22;6006;49.696;8.662;2022-11-10T14:34:29;14.10;99.90
11894;DHT22;6006;49.696;8.662;2022-11-10T14:36:59;14.20;80.40
11894;DHT22;6006;49.696;8.662;2022-11-10T14:39:31;14.10;99.90
11894;DHT22;6006;49.696;8.662;2022-11-10T14:42:02;14.10;99.90
11894;DHT22;6006;49.696;8.662;2022-11-10T14:44:30;14.50;99.90
11894;DHT22;6006;49.696;8.662;2022-11-10T14:47:20;14.60;1.00
11894;DHT22;6006;49.696;8.662;2022-11-10T14:50:05;14.60;99.90
11894;DHT22;6006;49.696;8.662;2022-11-10T14:52:36;13.90;1.00
11894;DHT22;6006;49.696;8.662;2022-11-10T14:55:08;13.50;99.90
11894;DHT22;6006;49.696;8.662;2022-11-10T14:57:39;13.20;99.90
11894;DHT22;6006;49.696;8.662;2022-11-10T15:00:10;12.80;1.00
11894;DHT22;6006;49.696;8.662;2022-11-10T15:02:39;12.50;1.00
11894;DHT22;6006;49.696;8.662;2022-11-10T15:05:11;12.30;68.10
11894;DHT22;6006;49.696;8.662;2022-11-10T15:07:38;12.00;81.70
11894;DHT22;6006;49.696;8.662;2022-11-10T15:10:17;11.80;99.90
11894;DHT22;6006;49.696;8.662;2022-11-10T15:12:57;11.70;99.90
11894;DHT22;6006;49.696;8.662;2022-11-10T15:15:25;11.50;99.90
11894;DHT22;6006;49.696;8.662;2022-11-10T15:17:51;11.40;99.90
11894;DHT22;6006;49.696;8.662;2022-11-10T15:20:33;11.30;99.90
11894;DHT22;6006;49.696;8.662;2022-11-10T15:23:03;11.20;99.90
11894;DHT22;6006;49.696;8.662;2022-11-10T15:25:34;11.10;99.90
11894;DHT22;6006;49.696;8.662;2022-11-10T15:28:03;11.00;99.90
11894;DHT22;6006;49.696;8.662;2022-11-10T15:30:31;10.90;99.90
11894;DHT22;6006;49.696;8.662;2022-11-10T15:32:58;10.80;99.90
11894;DHT22;6006;49.696;8.662;2022-11-10T15:35:28;10.60;99.90
11894;DHT22;6006;49.696;8.662;2022-11-10T15:38:00;10.60;99.90
11894;DHT22;6006;49.696;8.662;2022-11-10T15:40:34;10.40;99.90
11894;DHT22;6006;49.696;8.662;2022-11-10T15:43:09;10.40;99.90
11894;DHT22;6006;49.696;8.662;2022-11-10T15:45:37;10.40;99.90
11894;DHT22;6006;49.696;8.662;2022-11-10T15:48:07;10.30;99.90
11894;DHT22;6006;49.696;8.662;2022-11-10T15:50:36;10.10;99.90
11894;DHT22;6006;49.696;8.662;2022-11-10T15:53:05;10.00;99.90
11894;DHT22;6006;49.696;8.662;2022-11-10T15:55:39;9.90;99.90
11894;DHT22;6006;49.696;8.662;2022-11-10T15:58:17;9.90;99.90
11894;DHT22;6006;49.696;8.662;2022-11-10T16:00:45;9.90;99.90
11894;DHT22;6006;49.696;8.662;2022-11-10T16:03:13;9.80;99.90
11894;DHT22;6006;49.696;8.662;2022-11-10T16:05:41;9.80;99.90
11894;DHT22;6006;49.696;8.662;2022-11-10T16:08:11;9.70;99.90
11894;DHT22;6006;49.696;8.662;2022-11-10T16:10:40;9.70;99.90
11894;DHT22;6006;49.696;8.662;2022-11-10T16:13:10;9.60;99.90
11894;DHT22;6006;49.696;8.662;2022-11-10T16:15:38;9.50;99.90
11894;DHT22;6006;49.696;8.662;2022-11-10T16:18:10;9.40;99.90
11894;DHT22;6006;49.696;8.662;2022-11-10T16:20:37;9.30;99.90
11894;DHT22;6006;49.696;8.662;2022-11-10T16:23:04;9.30;99.90
11894;DHT22;6006;49.696;8.662;2022-11-10T16:25:32;9.20;99.90
11894;DHT22;6006;49.696;8.662;2022-11-10T16:28:01;9.10;99.90
11894;DHT22;6006;49.696;8.662;2022-11-10T16:30:29;8.90;99.90
11894;DHT22;6006;49.696;8.662;2022-11-10T16:32:56;8.80;99.90